createdAt,value
2018-07-02T00:00:28.894Z,49.50
2018-07-02T00:02:58.169Z,49.60
2018-07-02T00:05:38.624Z,49.40
2018-07-02T00:08:08.594Z,49.50
2018-07-02T00:10:37.767Z,49.40
2018-07-02T00:13:06.882Z,49.00
2018-07-02T00:15:36.084Z,48.80
2018-07-02T00:18:05.297Z,48.70
2018-07-02T00:20:34.533Z,48.60
2018-07-02T00:25:32.437Z,48.40
2018-07-02T00:28:01.570Z,48.40
2018-07-02T00:30:30.706Z,48.50
2018-07-02T00:32:59.921Z,48.90
2018-07-02T00:35:29.072Z,48.80
2018-07-02T00:37:58.288Z,48.90
2018-07-02T00:40:27.470Z,49.00
2018-07-02T00:42:56.714Z,48.60
2018-07-02T00:45:25.849Z,48.70
2018-07-02T00:47:55.098Z,49.70
2018-07-02T00:50:24.306Z,48.90
2018-07-02T00:52:53.946Z,49.00
2018-07-02T00:55:23.060Z,49.00
2018-07-02T00:57:52.262Z,49.50
2018-07-02T01:00:21.581Z,48.80
2018-07-02T01:02:51.077Z,48.60
2018-07-02T01:05:20.438Z,48.70
2018-07-02T01:07:49.782Z,48.80
2018-07-02T01:10:18.908Z,49.10
2018-07-02T01:12:48.077Z,49.00
2018-07-02T01:15:17.328Z,49.00
2018-07-02T01:17:46.859Z,49.10
2018-07-02T01:20:16.118Z,49.50
2018-07-02T01:22:45.353Z,49.40
2018-07-02T01:25:14.745Z,49.20
2018-07-02T01:30:12.667Z,49.90
2018-07-02T01:32:42.124Z,49.80
2018-07-02T01:35:11.453Z,50.20
2018-07-02T01:37:40.649Z,50.00
2018-07-02T01:40:10.718Z,50.10
2018-07-02T01:42:39.961Z,50.30
2018-07-02T01:45:09.227Z,50.20
2018-07-02T01:47:38.410Z,50.40
2018-07-02T01:50:07.783Z,49.90
2018-07-02T01:52:38.160Z,51.00
2018-07-02T01:55:07.336Z,51.70
2018-07-02T01:57:36.592Z,51.60
2018-07-02T02:00:05.784Z,51.40
2018-07-02T02:02:37.927Z,51.70
2018-07-02T02:05:07.119Z,51.80
2018-07-02T02:07:36.384Z,51.80
2018-07-02T02:10:05.686Z,51.70
2018-07-02T02:12:34.961Z,51.40
2018-07-02T02:15:04.310Z,51.70
2018-07-02T02:17:33.508Z,51.60
2018-07-02T02:20:02.862Z,52.50
2018-07-02T02:22:32.149Z,51.70
2018-07-02T02:25:01.323Z,51.90
2018-07-02T02:27:30.437Z,52.00
2018-07-02T02:29:59.617Z,52.10
2018-07-02T02:32:28.791Z,52.20
2018-07-02T02:34:57.946Z,52.00
2018-07-02T02:37:27.028Z,52.10
2018-07-02T02:39:56.162Z,52.20
2018-07-02T02:42:25.315Z,52.30
2018-07-02T02:44:54.425Z,53.00
2018-07-02T02:47:23.595Z,53.10
2018-07-02T02:49:52.843Z,53.10
2018-07-02T02:52:21.991Z,53.40
2018-07-02T02:54:51.131Z,53.10
2018-07-02T02:57:20.309Z,53.10
2018-07-02T02:59:49.416Z,53.00
2018-07-02T03:02:18.600Z,53.30
2018-07-02T03:04:47.773Z,53.50
2018-07-02T03:07:16.914Z,53.30
2018-07-02T03:09:46.118Z,53.40
2018-07-02T03:12:15.201Z,53.60
2018-07-02T03:14:44.350Z,53.80
2018-07-02T03:17:13.473Z,53.60
2018-07-02T03:19:42.679Z,53.60
2018-07-02T03:22:11.801Z,53.70
2018-07-02T03:24:40.932Z,53.60
2018-07-02T03:27:10.166Z,53.80
2018-07-02T03:29:39.441Z,53.70
2018-07-02T03:32:08.626Z,54.00
2018-07-02T03:34:37.754Z,54.80
2018-07-02T03:37:06.846Z,54.50
2018-07-02T03:39:35.960Z,54.70
2018-07-02T03:42:05.157Z,55.10
2018-07-02T03:44:34.282Z,55.10
2018-07-02T03:47:03.538Z,55.10
2018-07-02T03:49:32.685Z,55.60
2018-07-02T03:52:01.849Z,56.50
2018-07-02T03:54:31.104Z,56.30
2018-07-02T03:57:00.245Z,56.80
2018-07-02T03:59:29.390Z,57.00
2018-07-02T04:01:58.505Z,57.40
2018-07-02T04:04:27.698Z,58.40
2018-07-02T04:06:56.853Z,57.90
2018-07-02T04:09:26.060Z,58.00
2018-07-02T04:11:55.208Z,57.80
2018-07-02T04:14:24.408Z,58.20
2018-07-02T04:16:53.567Z,58.20
2018-07-02T04:19:22.771Z,58.40
2018-07-02T04:21:51.903Z,57.70
2018-07-02T04:24:21.156Z,58.00
2018-07-02T04:26:50.280Z,57.90
2018-07-02T04:29:19.424Z,57.70
2018-07-02T04:31:48.519Z,57.70
2018-07-02T04:34:17.685Z,57.40
2018-07-02T04:36:46.878Z,57.50
2018-07-02T04:39:15.981Z,57.40
2018-07-02T04:41:45.103Z,57.30
2018-07-02T04:44:14.233Z,56.80
2018-07-02T04:46:43.365Z,56.80
2018-07-02T04:49:12.493Z,56.60
2018-07-02T04:51:42.029Z,56.70
2018-07-02T04:54:11.164Z,56.50
2018-07-02T04:56:40.347Z,56.80
2018-07-02T04:59:09.514Z,56.20
2018-07-02T05:01:38.833Z,56.20
2018-07-02T05:04:07.969Z,56.50
2018-07-02T05:06:37.248Z,56.50
2018-07-02T05:09:07.889Z,56.50
2018-07-02T05:14:06.374Z,60.80
2018-07-02T05:16:35.519Z,57.30
2018-07-02T05:19:04.687Z,56.40
2018-07-02T05:21:34.085Z,56.10
2018-07-02T05:24:03.196Z,56.60
2018-07-02T05:26:32.308Z,56.10
2018-07-02T05:29:01.424Z,56.50
2018-07-02T05:31:30.685Z,56.30
2018-07-02T05:33:59.816Z,55.30
2018-07-02T05:36:28.993Z,55.50
2018-07-02T05:38:58.183Z,55.10
2018-07-02T05:41:27.394Z,55.20
2018-07-02T05:43:56.558Z,54.70
2018-07-02T05:46:25.796Z,54.80
2018-07-02T05:48:55.732Z,54.60
2018-07-02T05:51:24.913Z,56.40
2018-07-02T05:53:54.140Z,56.00
2018-07-02T05:56:23.338Z,54.50
2018-07-02T05:58:52.533Z,54.90
2018-07-02T06:01:21.673Z,54.80
2018-07-02T06:03:50.780Z,55.00
2018-07-02T06:06:20.010Z,54.60
2018-07-02T06:08:49.159Z,55.20
2018-07-02T06:11:18.288Z,54.80
2018-07-02T06:13:47.474Z,55.50
2018-07-02T06:16:16.674Z,54.20
2018-07-02T06:18:45.808Z,54.20
2018-07-02T06:21:15.018Z,54.40
2018-07-02T06:23:44.238Z,54.50
2018-07-02T06:26:13.399Z,54.10
2018-07-02T06:28:42.605Z,54.10
2018-07-02T06:31:11.777Z,54.10
2018-07-02T06:33:41.032Z,54.20
2018-07-02T06:36:10.156Z,53.20
2018-07-02T06:38:39.392Z,52.90
2018-07-02T06:41:08.578Z,52.20
2018-07-02T06:43:38.637Z,51.30
2018-07-02T06:46:08.114Z,50.80
2018-07-02T06:48:37.295Z,50.70
2018-07-02T06:51:06.817Z,50.00
2018-07-02T06:53:35.952Z,48.90
2018-07-02T06:56:05.156Z,47.10
2018-07-02T06:58:34.422Z,46.50
2018-07-02T07:01:05.445Z,44.00
2018-07-02T07:03:36.475Z,43.00
2018-07-02T07:06:05.675Z,42.00
2018-07-02T07:08:34.888Z,40.80
2018-07-02T07:11:04.179Z,38.60
2018-07-02T07:13:34.646Z,38.60
2018-07-02T07:16:03.812Z,36.60
2018-07-02T07:18:34.446Z,36.70
2018-07-02T07:21:03.660Z,36.10
2018-07-02T07:23:32.839Z,35.40
2018-07-02T07:26:02.259Z,34.20
2018-07-02T07:28:31.393Z,33.40
2018-07-02T07:31:00.622Z,32.70
2018-07-02T07:33:29.834Z,31.90
2018-07-02T07:35:59.037Z,31.70
2018-07-02T07:38:28.449Z,32.90
2018-07-02T07:40:57.632Z,31.70
2018-07-02T07:43:26.791Z,31.10
2018-07-02T07:45:55.937Z,32.50
2018-07-02T07:48:25.090Z,31.00
2018-07-02T07:50:54.229Z,31.30
2018-07-02T07:53:23.454Z,31.00
2018-07-02T07:55:52.635Z,29.70
2018-07-02T07:58:23.591Z,29.40
2018-07-02T08:00:52.770Z,29.30
2018-07-02T08:03:21.967Z,29.20
2018-07-02T08:05:51.137Z,28.10
2018-07-02T08:08:20.369Z,28.00
2018-07-02T08:13:18.934Z,27.60
2018-07-02T08:15:48.083Z,28.00
2018-07-02T08:18:17.585Z,27.50
2018-07-02T08:20:46.815Z,27.00
2018-07-02T08:23:16.007Z,27.50
2018-07-02T08:25:45.173Z,27.70
2018-07-02T08:28:15.103Z,27.40
2018-07-02T08:30:45.103Z,28.10
2018-07-02T08:33:14.245Z,27.90
2018-07-02T08:35:43.428Z,27.10
2018-07-02T08:38:12.530Z,27.10
2018-07-02T08:40:41.784Z,26.70
2018-07-02T08:43:11.083Z,27.50
2018-07-02T08:45:41.030Z,26.90
2018-07-02T08:48:10.186Z,26.30
2018-07-02T08:50:40.301Z,26.40
2018-07-02T08:53:13.238Z,27.00
2018-07-02T08:55:43.603Z,27.40
2018-07-02T08:58:13.637Z,27.30
2018-07-02T09:00:42.833Z,28.00
2018-07-02T09:03:11.926Z,28.60
2018-07-02T09:05:41.128Z,29.10
2018-07-02T09:08:11.045Z,29.60
2018-07-02T09:17:29.714Z,31.60
2018-07-02T09:19:58.885Z,32.90
2018-07-02T09:22:28.061Z,34.10
2018-07-02T09:24:57.201Z,34.40
2018-07-02T09:27:26.403Z,34.90
2018-07-02T09:29:55.726Z,34.90
2018-07-02T09:32:24.912Z,34.90
2018-07-02T09:34:54.122Z,34.70
2018-07-02T09:37:23.350Z,35.40
2018-07-02T09:39:52.635Z,35.50
2018-07-02T09:42:21.745Z,34.90
2018-07-02T09:44:50.946Z,35.20
2018-07-02T09:47:20.125Z,34.00
2018-07-02T09:49:49.340Z,33.70
2018-07-02T09:52:18.513Z,34.00
2018-07-02T09:54:47.773Z,34.30
2018-07-02T09:57:16.932Z,34.00
2018-07-02T10:02:14.817Z,34.60
2018-07-02T10:04:44.018Z,35.20
2018-07-02T10:07:13.232Z,35.30
2018-07-02T10:09:42.391Z,35.60
2018-07-02T10:12:11.571Z,35.40
2018-07-02T10:14:40.857Z,34.80
2018-07-02T10:17:10.182Z,34.80
2018-07-02T10:19:39.399Z,35.20
2018-07-02T10:22:08.596Z,34.70
2018-07-02T10:27:07.422Z,32.70
2018-07-02T10:29:36.636Z,32.30
2018-07-02T10:32:05.870Z,32.10
2018-07-02T10:34:35.102Z,32.60
2018-07-02T10:37:04.383Z,33.20
2018-07-02T10:39:33.545Z,33.30
2018-07-02T10:42:02.726Z,32.60
2018-07-02T10:44:32.689Z,32.10
2018-07-02T10:47:01.995Z,31.70
2018-07-02T10:49:31.908Z,32.10
2018-07-02T10:52:02.241Z,31.60
2018-07-02T10:54:31.972Z,33.00
2018-07-02T10:57:01.161Z,33.60
2018-07-02T10:59:30.414Z,34.00
2018-07-02T11:02:00.206Z,33.60
2018-07-02T11:04:29.391Z,33.90
2018-07-02T11:06:59.467Z,33.50
2018-07-02T11:09:28.739Z,33.20
2018-07-02T11:11:57.998Z,34.00
2018-07-02T11:14:28.203Z,34.10
2018-07-02T11:16:57.373Z,34.00
2018-07-02T11:19:26.629Z,33.80
2018-07-02T11:21:56.678Z,34.40
2018-07-02T11:24:25.775Z,34.20
2018-07-02T11:26:55.005Z,34.00
2018-07-02T11:29:25.736Z,33.40
2018-07-02T11:31:54.884Z,33.50
2018-07-02T11:34:24.029Z,34.40
2018-07-02T11:36:53.301Z,33.40
2018-07-02T11:39:22.605Z,34.30
2018-07-02T11:41:51.850Z,33.90
2018-07-02T11:44:21.889Z,34.20
2018-07-02T11:46:51.411Z,34.30
2018-07-02T11:49:21.227Z,33.80
2018-07-02T11:51:50.492Z,33.20
2018-07-02T11:56:48.477Z,32.60
2018-07-02T11:59:18.701Z,32.30
2018-07-02T12:01:49.830Z,31.90
2018-07-02T12:04:19.095Z,32.40
2018-07-02T12:06:48.345Z,33.30
2018-07-02T12:09:17.586Z,32.90
2018-07-02T12:11:47.672Z,33.40
2018-07-02T12:14:16.951Z,33.60
2018-07-02T12:16:47.542Z,33.30
2018-07-02T12:19:16.777Z,33.10
2018-07-02T12:21:45.946Z,33.10
2018-07-02T12:24:15.283Z,33.20
2018-07-02T12:29:13.305Z,33.10
2018-07-02T12:31:42.483Z,33.30
2018-07-02T12:34:12.206Z,33.80
2018-07-02T12:36:41.467Z,33.60
2018-07-02T12:39:12.843Z,33.60
2018-07-02T12:41:42.829Z,34.20
2018-07-02T12:44:13.745Z,34.40
2018-07-02T12:46:44.083Z,34.60
2018-07-02T12:49:13.288Z,34.40
2018-07-02T12:51:42.471Z,34.00
2018-07-02T12:54:12.432Z,34.20
2018-07-02T12:56:43.796Z,34.00
2018-07-02T12:59:12.973Z,33.80
2018-07-02T13:01:42.156Z,34.30
2018-07-02T13:04:11.311Z,33.50
2018-07-02T13:06:40.575Z,33.60
2018-07-02T13:09:12.309Z,34.20
2018-07-02T13:11:42.145Z,35.40
2018-07-02T13:14:11.826Z,34.30
2018-07-02T13:16:42.416Z,33.80
2018-07-02T13:19:11.771Z,34.10
2018-07-02T13:21:41.570Z,33.70
2018-07-02T13:24:10.760Z,34.20
2018-07-02T13:26:40.039Z,34.80
2018-07-02T13:29:09.328Z,34.10
2018-07-02T13:31:38.470Z,34.50
2018-07-02T13:34:07.656Z,34.60
2018-07-02T13:36:36.935Z,34.90
2018-07-02T13:39:08.593Z,34.60
2018-07-02T13:41:37.884Z,34.50
2018-07-02T13:44:07.066Z,34.50
2018-07-02T13:46:37.130Z,34.20
2018-07-02T13:49:06.273Z,34.10
2018-07-02T13:51:35.539Z,34.00
2018-07-02T13:54:05.252Z,34.00
2018-07-02T13:56:35.034Z,34.40
2018-07-02T13:59:04.433Z,34.50
2018-07-02T14:01:33.641Z,34.80
2018-07-02T14:04:03.050Z,33.90
2018-07-02T14:06:32.214Z,33.50
2018-07-02T14:09:01.491Z,34.40
2018-07-02T14:11:30.929Z,34.00
2018-07-02T14:14:00.264Z,33.80
2018-07-02T14:16:29.443Z,33.40
2018-07-02T14:18:58.618Z,33.80
2018-07-02T14:21:27.865Z,34.40
2018-07-02T14:23:57.057Z,34.50
2018-07-02T14:26:26.254Z,34.30
2018-07-02T14:28:55.438Z,33.40
2018-07-02T14:31:24.716Z,34.10
2018-07-02T14:33:53.876Z,33.50
2018-07-02T14:36:23.054Z,34.00
2018-07-02T14:38:52.194Z,33.60
2018-07-02T14:41:21.345Z,33.30
2018-07-02T14:43:50.473Z,33.70
2018-07-02T14:46:19.657Z,33.70
2018-07-02T14:48:48.753Z,33.70
2018-07-02T14:51:17.963Z,34.30
2018-07-02T14:53:47.139Z,34.00
2018-07-02T14:56:16.283Z,33.90
2018-07-02T14:58:45.443Z,34.00
2018-07-02T15:01:14.677Z,34.30
2018-07-02T15:03:43.874Z,35.50
2018-07-02T15:06:13.094Z,34.90
2018-07-02T15:08:42.282Z,34.20
2018-07-02T15:11:11.451Z,34.00
2018-07-02T15:13:40.611Z,34.00
2018-07-02T15:16:09.778Z,33.70
2018-07-02T15:18:38.942Z,33.70
2018-07-02T15:21:08.205Z,34.10
2018-07-02T15:23:37.366Z,34.50
2018-07-02T15:26:06.751Z,34.20
2018-07-02T15:28:35.953Z,34.00
2018-07-02T15:31:05.714Z,34.20
2018-07-02T15:33:34.996Z,34.20
2018-07-02T15:36:04.158Z,33.90
2018-07-02T15:38:33.438Z,33.60
2018-07-02T15:41:02.758Z,33.30
2018-07-02T15:43:31.950Z,34.00
2018-07-02T15:46:01.157Z,33.80
2018-07-02T15:48:30.461Z,33.60
2018-07-02T15:50:59.801Z,33.90
2018-07-02T15:55:59.027Z,33.30
2018-07-02T15:58:34.605Z,33.40
2018-07-02T16:01:03.860Z,33.90
2018-07-02T16:06:01.924Z,34.00
2018-07-02T16:08:31.789Z,33.30
2018-07-02T16:11:01.031Z,33.00
2018-07-02T16:13:30.170Z,34.80
2018-07-02T16:15:59.387Z,35.70
2018-07-02T16:18:28.615Z,35.00
2018-07-02T16:20:57.850Z,35.00
2018-07-02T16:23:27.021Z,34.30
2018-07-02T16:25:56.256Z,35.80
2018-07-02T16:28:25.490Z,35.20
2018-07-02T16:30:54.649Z,33.80
2018-07-02T16:33:24.870Z,33.20
2018-07-02T16:35:54.065Z,32.30
2018-07-02T16:38:23.285Z,34.20
2018-07-02T16:40:52.447Z,34.10
2018-07-02T16:43:21.613Z,34.00
2018-07-02T16:45:50.816Z,33.60
2018-07-02T16:48:20.054Z,34.40
2018-07-02T16:53:18.091Z,33.80
2018-07-02T16:55:47.197Z,32.70
2018-07-02T16:58:16.428Z,33.90
2018-07-02T17:00:45.945Z,34.90
2018-07-02T17:03:15.111Z,35.20
2018-07-02T17:05:44.264Z,33.80
2018-07-02T17:08:13.419Z,33.90
2018-07-02T17:10:42.569Z,34.00
2018-07-02T17:13:11.781Z,33.00
2018-07-02T17:15:40.960Z,34.20
2018-07-02T17:18:10.152Z,32.90
2018-07-02T17:20:39.280Z,33.20
2018-07-02T17:23:08.463Z,34.50
2018-07-02T17:25:37.715Z,35.60
2018-07-02T17:28:06.994Z,35.00
2018-07-02T17:30:36.180Z,33.30
2018-07-02T17:33:05.645Z,34.60
2018-07-02T17:35:34.835Z,33.10
2018-07-02T17:38:04.154Z,34.70
2018-07-02T17:40:33.358Z,32.10
2018-07-02T17:43:02.782Z,34.40
2018-07-02T17:45:32.323Z,32.90
2018-07-02T17:48:01.956Z,32.60
2018-07-02T17:50:31.201Z,34.30
2018-07-02T17:53:00.493Z,33.40
2018-07-02T17:55:29.702Z,34.60
2018-07-02T17:57:58.866Z,34.90
2018-07-02T18:00:28.148Z,35.50
2018-07-02T18:02:57.426Z,34.10
2018-07-02T18:05:26.733Z,35.70
2018-07-02T18:07:55.897Z,33.60
2018-07-02T18:10:25.236Z,33.20
2018-07-02T18:12:54.332Z,33.40
2018-07-02T18:15:23.593Z,34.20
2018-07-02T18:17:53.098Z,35.10
2018-07-02T18:20:22.248Z,36.20
2018-07-02T18:22:51.491Z,34.50
2018-07-02T18:25:20.678Z,35.50
2018-07-02T18:27:50.013Z,34.40
2018-07-02T18:30:19.198Z,36.00
2018-07-02T18:32:48.374Z,34.60
2018-07-02T18:35:17.544Z,36.00
2018-07-02T18:37:46.724Z,35.30
2018-07-02T18:40:15.873Z,35.20
2018-07-02T18:42:45.076Z,35.60
2018-07-02T18:45:14.286Z,35.40
2018-07-02T18:47:43.507Z,35.20
2018-07-02T18:50:12.722Z,36.10
2018-07-02T18:52:41.882Z,35.30
2018-07-02T18:55:11.105Z,35.50
2018-07-02T18:57:40.523Z,36.40
2018-07-02T19:00:09.677Z,36.50
2018-07-02T19:02:38.958Z,35.50
2018-07-02T19:05:08.192Z,35.70
2018-07-02T19:07:37.451Z,35.70
2018-07-02T19:10:07.853Z,36.40
2018-07-02T19:12:37.046Z,36.50
2018-07-02T19:15:06.861Z,36.70
2018-07-02T19:17:36.208Z,36.50
2018-07-02T19:20:05.591Z,36.70
2018-07-02T19:22:35.802Z,37.60
2018-07-02T19:25:05.265Z,37.30
2018-07-02T19:27:34.515Z,38.30
2018-07-02T19:30:04.009Z,38.40
2018-07-02T19:32:34.104Z,38.80
2018-07-02T19:35:04.216Z,37.70
2018-07-02T19:37:34.346Z,38.70
2018-07-02T19:40:03.552Z,38.30
2018-07-02T19:42:32.706Z,39.10
2018-07-02T19:45:02.181Z,39.00
2018-07-02T19:47:31.438Z,39.70
2018-07-02T19:50:00.879Z,40.00
2018-07-02T19:52:30.227Z,40.20
2018-07-02T19:54:59.382Z,40.40
2018-07-02T19:57:28.595Z,39.90
2018-07-02T19:59:57.949Z,40.00
2018-07-02T20:02:27.965Z,39.70
2018-07-02T20:04:57.258Z,38.40
2018-07-02T20:07:26.448Z,40.00
2018-07-02T20:09:55.630Z,39.10
2018-07-02T20:14:53.700Z,39.60
2018-07-02T20:17:23.528Z,38.60
2018-07-02T20:19:52.873Z,38.80
2018-07-02T20:22:22.268Z,38.90
2018-07-02T20:24:51.457Z,38.90
2018-07-02T20:27:20.674Z,39.90
2018-07-02T20:29:49.867Z,40.50
2018-07-02T20:32:19.961Z,39.60
2018-07-02T20:34:49.290Z,39.60
2018-07-02T20:37:18.503Z,39.80
2018-07-02T20:39:48.400Z,40.30
2018-07-02T20:42:17.557Z,40.80
2018-07-02T20:44:46.751Z,41.00
2018-07-02T20:47:15.930Z,39.70
2018-07-02T20:49:46.253Z,40.60
2018-07-02T20:52:16.278Z,40.20
2018-07-02T20:54:45.717Z,39.60
2018-07-02T20:57:14.981Z,39.40
2018-07-02T20:59:44.114Z,40.80
2018-07-02T21:02:13.810Z,41.50
2018-07-02T21:04:43.081Z,39.80
2018-07-02T21:07:12.277Z,40.00
2018-07-02T21:09:41.572Z,39.80
2018-07-02T21:12:11.039Z,39.60
2018-07-02T21:14:40.238Z,40.00
2018-07-02T21:17:09.454Z,40.20
2018-07-02T21:19:38.605Z,40.50
2018-07-02T21:22:08.144Z,40.50
2018-07-02T21:24:37.420Z,40.60
2018-07-02T21:27:06.636Z,40.80
2018-07-02T21:29:35.847Z,42.10
2018-07-02T21:32:05.096Z,42.80
2018-07-02T21:34:34.401Z,43.80
2018-07-02T21:37:03.677Z,43.50
2018-07-02T21:39:33.626Z,42.60
2018-07-02T21:42:02.771Z,42.20
2018-07-02T21:44:33.052Z,42.30
2018-07-02T21:47:02.234Z,42.30
2018-07-02T21:49:31.378Z,43.30
2018-07-02T21:52:00.578Z,42.80
2018-07-02T21:54:29.725Z,43.00
2018-07-02T21:56:58.914Z,43.30
2018-07-02T21:59:28.127Z,44.50
2018-07-02T22:01:57.326Z,44.70
2018-07-02T22:04:26.526Z,45.30
2018-07-02T22:06:55.748Z,45.40
2018-07-02T22:09:24.932Z,45.70
2018-07-02T22:11:54.083Z,45.70
2018-07-02T22:14:23.598Z,46.70
2018-07-02T22:16:53.073Z,46.70
2018-07-02T22:19:23.520Z,47.20
2018-07-02T22:21:52.697Z,47.00
2018-07-02T22:24:21.862Z,47.10
2018-07-02T22:26:50.979Z,46.30
2018-07-02T22:29:20.723Z,46.00
2018-07-02T22:31:49.858Z,45.80
2018-07-02T22:34:19.021Z,46.20
2018-07-02T22:36:48.180Z,46.10
2018-07-02T22:39:17.391Z,46.50
2018-07-02T22:41:46.507Z,46.60
2018-07-02T22:44:15.668Z,46.80
2018-07-02T22:46:44.843Z,47.00
2018-07-02T22:49:14.013Z,47.30
2018-07-02T22:51:43.182Z,47.60
2018-07-02T22:54:12.356Z,47.70
2018-07-02T22:56:41.546Z,47.80
2018-07-02T22:59:10.662Z,48.60
2018-07-02T23:01:39.846Z,48.90
2018-07-02T23:04:08.931Z,48.50
2018-07-02T23:06:38.102Z,49.30
2018-07-02T23:09:08.695Z,48.50
2018-07-02T23:11:38.002Z,49.00
2018-07-02T23:14:07.174Z,48.90
2018-07-02T23:16:36.298Z,49.10
2018-07-02T23:19:05.462Z,49.30
2018-07-02T23:21:34.602Z,49.40
2018-07-02T23:24:03.749Z,49.30
2018-07-02T23:26:32.909Z,49.40
2018-07-02T23:29:02.084Z,49.40
2018-07-02T23:31:31.306Z,49.60
2018-07-02T23:34:00.429Z,50.00
2018-07-02T23:36:29.574Z,50.20
2018-07-02T23:38:58.721Z,50.50
2018-07-02T23:41:27.835Z,51.10
2018-07-02T23:43:57.031Z,51.30
2018-07-02T23:46:26.146Z,51.60
2018-07-02T23:48:55.273Z,52.10
2018-07-02T23:51:24.465Z,52.30
2018-07-02T23:53:53.587Z,52.50
2018-07-02T23:56:22.746Z,52.70
2018-07-02T23:58:51.855Z,52.90
